sensor_id;sensor_type;location;lat;lon;timestamp;P1;durP1;ratioP1;P2;durP2;ratioP2
14092;SDS011;7123;49.468;10.992;2023-03-14T00:00:52;0.40;;;0.40;;
14092;SDS011;7123;49.468;10.992;2023-03-14T00:03:19;0.90;;;0.40;;
14092;SDS011;7123;49.468;10.992;2023-03-14T00:05:46;0.30;;;0.30;;
14092;SDS011;7123;49.468;10.992;2023-03-14T00:08:15;0.40;;;0.40;;
14092;SDS011;7123;49.468;10.992;2023-03-14T00:10:41;0.60;;;0.40;;
14092;SDS011;7123;49.468;10.992;2023-03-14T00:13:08;0.40;;;0.33;;
14092;SDS011;7123;49.468;10.992;2023-03-14T00:15:35;1.77;;;0.50;;
14092;SDS011;7123;49.468;10.992;2023-03-14T00:18:02;0.30;;;0.30;;
14092;SDS011;7123;49.468;10.992;2023-03-14T00:20:31;0.70;;;0.40;;
14092;SDS011;7123;49.468;10.992;2023-03-14T00:22:57;0.80;;;0.27;;
14092;SDS011;7123;49.468;10.992;2023-03-14T00:25:24;1.40;;;0.60;;
14092;SDS011;7123;49.468;10.992;2023-03-14T00:27:54;0.70;;;0.30;;
14092;SDS011;7123;49.468;10.992;2023-03-14T00:30:20;0.30;;;0.30;;
14092;SDS011;7123;49.468;10.992;2023-03-14T00:32:47;0.70;;;0.50;;
14092;SDS011;7123;49.468;10.992;2023-03-14T00:35:14;1.50;;;0.30;;
14092;SDS011;7123;49.468;10.992;2023-03-14T00:37:41;0.40;;;0.40;;
14092;SDS011;7123;49.468;10.992;2023-03-14T00:40:08;0.50;;;0.20;;
14092;SDS011;7123;49.468;10.992;2023-03-14T00:42:35;0.60;;;0.20;;
14092;SDS011;7123;49.468;10.992;2023-03-14T00:45:03;0.20;;;0.20;;
14092;SDS011;7123;49.468;10.992;2023-03-14T00:47:30;0.27;;;0.17;;
14092;SDS011;7123;49.468;10.992;2023-03-14T00:49:56;1.50;;;0.10;;
14092;SDS011;7123;49.468;10.992;2023-03-14T00:52:23;2.47;;;0.20;;
14092;SDS011;7123;49.468;10.992;2023-03-14T00:54:50;0.33;;;0.17;;
14092;SDS011;7123;49.468;10.992;2023-03-14T00:57:16;0.30;;;0.13;;
14092;SDS011;7123;49.468;10.992;2023-03-14T00:59:43;0.30;;;0.30;;
14092;SDS011;7123;49.468;10.992;2023-03-14T01:02:10;0.47;;;0.10;;
14092;SDS011;7123;49.468;10.992;2023-03-14T01:04:36;5.10;;;0.10;;
14092;SDS011;7123;49.468;10.992;2023-03-14T01:07:05;0.10;;;0.10;;
14092;SDS011;7123;49.468;10.992;2023-03-14T01:09:32;0.23;;;0.00;;
14092;SDS011;7123;49.468;10.992;2023-03-14T01:11:58;0.10;;;0.10;;
14092;SDS011;7123;49.468;10.992;2023-03-14T01:14:25;0.77;;;0.20;;
14092;SDS011;7123;49.468;10.992;2023-03-14T01:16:52;0.10;;;0.10;;
14092;SDS011;7123;49.468;10.992;2023-03-14T01:19:19;0.10;;;0.10;;
14092;SDS011;7123;49.468;10.992;2023-03-14T01:21:45;0.10;;;0.10;;
14092;SDS011;7123;49.468;10.992;2023-03-14T01:24:12;0.10;;;0.10;;
14092;SDS011;7123;49.468;10.992;2023-03-14T01:26:39;0.10;;;0.10;;
14092;SDS011;7123;49.468;10.992;2023-03-14T01:29:05;0.10;;;0.10;;
14092;SDS011;7123;49.468;10.992;2023-03-14T01:31:33;0.17;;;0.00;;
14092;SDS011;7123;49.468;10.992;2023-03-14T01:34:00;0.73;;;0.20;;
14092;SDS011;7123;49.468;10.992;2023-03-14T01:36:27;0.00;;;0.00;;
14092;SDS011;7123;49.468;10.992;2023-03-14T01:38:56;0.20;;;0.10;;
14092;SDS011;7123;49.468;10.992;2023-03-14T01:41:24;0.30;;;0.30;;
14092;SDS011;7123;49.468;10.992;2023-03-14T01:43:52;0.10;;;0.10;;
14092;SDS011;7123;49.468;10.992;2023-03-14T01:46:23;0.80;;;0.10;;
14092;SDS011;7123;49.468;10.992;2023-03-14T01:51:37;0.10;;;0.10;;
14092;SDS011;7123;49.468;10.992;2023-03-14T01:56:46;0.30;;;0.20;;
14092;SDS011;7123;49.468;10.992;2023-03-14T01:59:17;0.20;;;0.20;;
14092;SDS011;7123;49.468;10.992;2023-03-14T02:01:45;0.00;;;0.00;;
14092;SDS011;7123;49.468;10.992;2023-03-14T02:04:14;0.60;;;0.10;;
14092;SDS011;7123;49.468;10.992;2023-03-14T02:06:46;1.77;;;0.10;;
14092;SDS011;7123;49.468;10.992;2023-03-14T02:09:16;1.13;;;0.97;;
14092;SDS011;7123;49.468;10.992;2023-03-14T02:11:43;1.70;;;0.60;;
14092;SDS011;7123;49.468;10.992;2023-03-14T02:14:14;1.07;;;0.40;;
14092;SDS011;7123;49.468;10.992;2023-03-14T02:16:47;0.33;;;0.33;;
14092;SDS011;7123;49.468;10.992;2023-03-14T02:19:15;0.60;;;0.30;;
14092;SDS011;7123;49.468;10.992;2023-03-14T02:21:54;0.47;;;0.27;;
14092;SDS011;7123;49.468;10.992;2023-03-14T02:24:46;0.20;;;0.20;;
14092;SDS011;7123;49.468;10.992;2023-03-14T02:27:22;0.20;;;0.20;;
14092;SDS011;7123;49.468;10.992;2023-03-14T02:29:51;1.33;;;0.30;;
14092;SDS011;7123;49.468;10.992;2023-03-14T02:32:20;0.17;;;0.17;;
14092;SDS011;7123;49.468;10.992;2023-03-14T02:34:51;0.40;;;0.23;;
14092;SDS011;7123;49.468;10.992;2023-03-14T02:37:22;0.10;;;0.10;;
14092;SDS011;7123;49.468;10.992;2023-03-14T02:39:53;0.40;;;0.20;;
14092;SDS011;7123;49.468;10.992;2023-03-14T02:42:20;0.47;;;0.20;;
14092;SDS011;7123;49.468;10.992;2023-03-14T02:44:53;0.30;;;0.30;;
14092;SDS011;7123;49.468;10.992;2023-03-14T02:47:28;0.40;;;0.20;;
14092;SDS011;7123;49.468;10.992;2023-03-14T02:50:18;0.10;;;0.10;;
14092;SDS011;7123;49.468;10.992;2023-03-14T02:52:45;0.13;;;0.13;;
14092;SDS011;7123;49.468;10.992;2023-03-14T02:55:12;0.10;;;0.10;;
14092;SDS011;7123;49.468;10.992;2023-03-14T02:57:38;0.53;;;0.10;;
14092;SDS011;7123;49.468;10.992;2023-03-14T03:00:05;0.20;;;0.10;;
14092;SDS011;7123;49.468;10.992;2023-03-14T03:02:34;1.63;;;0.40;;
14092;SDS011;7123;49.468;10.992;2023-03-14T03:05:00;0.20;;;0.20;;
14092;SDS011;7123;49.468;10.992;2023-03-14T03:07:27;0.53;;;0.27;;
14092;SDS011;7123;49.468;10.992;2023-03-14T03:09:53;0.10;;;0.10;;
14092;SDS011;7123;49.468;10.992;2023-03-14T03:12:20;0.20;;;0.20;;
14092;SDS011;7123;49.468;10.992;2023-03-14T03:14:47;1.17;;;0.30;;
14092;SDS011;7123;49.468;10.992;2023-03-14T03:17:14;0.20;;;0.20;;
14092;SDS011;7123;49.468;10.992;2023-03-14T03:19:40;0.20;;;0.20;;
14092;SDS011;7123;49.468;10.992;2023-03-14T03:22:07;0.33;;;0.23;;
14092;SDS011;7123;49.468;10.992;2023-03-14T03:24:34;0.00;;;0.00;;
14092;SDS011;7123;49.468;10.992;2023-03-14T03:27:00;0.10;;;0.10;;
14092;SDS011;7123;49.468;10.992;2023-03-14T03:29:27;0.20;;;0.10;;
14092;SDS011;7123;49.468;10.992;2023-03-14T03:31:54;0.10;;;0.10;;
14092;SDS011;7123;49.468;10.992;2023-03-14T03:34:20;0.50;;;0.27;;
14092;SDS011;7123;49.468;10.992;2023-03-14T03:36:47;0.40;;;0.10;;
14092;SDS011;7123;49.468;10.992;2023-03-14T03:39:14;0.23;;;0.10;;
14092;SDS011;7123;49.468;10.992;2023-03-14T03:41:40;0.67;;;0.30;;
14092;SDS011;7123;49.468;10.992;2023-03-14T03:44:07;2.00;;;0.20;;
14092;SDS011;7123;49.468;10.992;2023-03-14T03:46:34;0.50;;;0.37;;
14092;SDS011;7123;49.468;10.992;2023-03-14T03:49:01;0.53;;;0.27;;
14092;SDS011;7123;49.468;10.992;2023-03-14T03:51:27;0.10;;;0.10;;
14092;SDS011;7123;49.468;10.992;2023-03-14T03:53:55;0.70;;;0.40;;
14092;SDS011;7123;49.468;10.992;2023-03-14T03:56:22;0.47;;;0.30;;
14092;SDS011;7123;49.468;10.992;2023-03-14T03:58:49;1.50;;;0.23;;
14092;SDS011;7123;49.468;10.992;2023-03-14T04:01:15;0.10;;;0.10;;
14092;SDS011;7123;49.468;10.992;2023-03-14T04:03:42;0.33;;;0.20;;
14092;SDS011;7123;49.468;10.992;2023-03-14T04:06:10;0.10;;;0.10;;
14092;SDS011;7123;49.468;10.992;2023-03-14T04:08:41;0.23;;;0.17;;
14092;SDS011;7123;49.468;10.992;2023-03-14T04:11:09;0.10;;;0.10;;
14092;SDS011;7123;49.468;10.992;2023-03-14T04:13:36;0.87;;;0.10;;
14092;SDS011;7123;49.468;10.992;2023-03-14T04:16:03;2.20;;;0.20;;
14092;SDS011;7123;49.468;10.992;2023-03-14T04:18:35;2.63;;;0.20;;
14092;SDS011;7123;49.468;10.992;2023-03-14T04:21:02;0.20;;;0.20;;
14092;SDS011;7123;49.468;10.992;2023-03-14T04:23:29;0.10;;;0.10;;
14092;SDS011;7123;49.468;10.992;2023-03-14T04:25:55;0.27;;;0.20;;
14092;SDS011;7123;49.468;10.992;2023-03-14T04:28:24;0.10;;;0.10;;
14092;SDS011;7123;49.468;10.992;2023-03-14T04:30:54;0.67;;;0.30;;
14092;SDS011;7123;49.468;10.992;2023-03-14T04:33:21;0.10;;;0.10;;
14092;SDS011;7123;49.468;10.992;2023-03-14T04:35:47;0.20;;;0.20;;
14092;SDS011;7123;49.468;10.992;2023-03-14T04:38:16;0.10;;;0.10;;
14092;SDS011;7123;49.468;10.992;2023-03-14T04:40:43;0.87;;;0.20;;
14092;SDS011;7123;49.468;10.992;2023-03-14T04:43:10;0.20;;;0.20;;
14092;SDS011;7123;49.468;10.992;2023-03-14T04:45:41;0.33;;;0.20;;
14092;SDS011;7123;49.468;10.992;2023-03-14T04:48:08;0.20;;;0.20;;
14092;SDS011;7123;49.468;10.992;2023-03-14T04:50:35;0.67;;;0.30;;
14092;SDS011;7123;49.468;10.992;2023-03-14T04:53:02;0.13;;;0.13;;
14092;SDS011;7123;49.468;10.992;2023-03-14T04:55:29;0.50;;;0.13;;
14092;SDS011;7123;49.468;10.992;2023-03-14T04:57:58;0.67;;;0.20;;
14092;SDS011;7123;49.468;10.992;2023-03-14T05:00:25;0.57;;;0.17;;
14092;SDS011;7123;49.468;10.992;2023-03-14T05:02:52;0.10;;;0.10;;
14092;SDS011;7123;49.468;10.992;2023-03-14T05:05:19;0.27;;;0.20;;
14092;SDS011;7123;49.468;10.992;2023-03-14T05:07:46;0.33;;;0.30;;
14092;SDS011;7123;49.468;10.992;2023-03-14T05:10:13;0.10;;;0.10;;
14092;SDS011;7123;49.468;10.992;2023-03-14T05:12:40;0.17;;;0.17;;
14092;SDS011;7123;49.468;10.992;2023-03-14T05:15:07;1.23;;;0.30;;
14092;SDS011;7123;49.468;10.992;2023-03-14T05:17:35;0.20;;;0.20;;
14092;SDS011;7123;49.468;10.992;2023-03-14T05:20:03;0.53;;;0.20;;
14092;SDS011;7123;49.468;10.992;2023-03-14T05:22:38;0.30;;;0.13;;
14092;SDS011;7123;49.468;10.992;2023-03-14T05:25:06;2.00;;;0.10;;
14092;SDS011;7123;49.468;10.992;2023-03-14T05:27:34;0.27;;;0.10;;
14092;SDS011;7123;49.468;10.992;2023-03-14T05:30:05;0.20;;;0.20;;
14092;SDS011;7123;49.468;10.992;2023-03-14T05:32:33;1.30;;;0.30;;
14092;SDS011;7123;49.468;10.992;2023-03-14T05:35:01;0.73;;;0.20;;
14092;SDS011;7123;49.468;10.992;2023-03-14T05:37:28;0.20;;;0.20;;
14092;SDS011;7123;49.468;10.992;2023-03-14T05:39:55;0.20;;;0.20;;
14092;SDS011;7123;49.468;10.992;2023-03-14T05:42:22;0.20;;;0.20;;
14092;SDS011;7123;49.468;10.992;2023-03-14T05:44:49;0.20;;;0.20;;
14092;SDS011;7123;49.468;10.992;2023-03-14T05:47:16;0.30;;;0.30;;
14092;SDS011;7123;49.468;10.992;2023-03-14T05:49:43;1.20;;;0.30;;
14092;SDS011;7123;49.468;10.992;2023-03-14T05:52:11;0.60;;;0.40;;
14092;SDS011;7123;49.468;10.992;2023-03-14T05:54:38;0.20;;;0.20;;
14092;SDS011;7123;49.468;10.992;2023-03-14T05:57:06;0.87;;;0.30;;
14092;SDS011;7123;49.468;10.992;2023-03-14T05:59:33;3.60;;;0.60;;
14092;SDS011;7123;49.468;10.992;2023-03-14T06:02:00;0.50;;;0.40;;
14092;SDS011;7123;49.468;10.992;2023-03-14T06:04:27;2.20;;;0.40;;
14092;SDS011;7123;49.468;10.992;2023-03-14T06:06:54;0.50;;;0.20;;
14092;SDS011;7123;49.468;10.992;2023-03-14T06:09:21;1.80;;;0.33;;
14092;SDS011;7123;49.468;10.992;2023-03-14T06:11:49;1.93;;;0.40;;
14092;SDS011;7123;49.468;10.992;2023-03-14T06:14:17;0.40;;;0.40;;
14092;SDS011;7123;49.468;10.992;2023-03-14T06:16:46;0.40;;;0.40;;
14092;SDS011;7123;49.468;10.992;2023-03-14T06:19:15;0.57;;;0.50;;
14092;SDS011;7123;49.468;10.992;2023-03-14T06:21:42;0.50;;;0.43;;
14092;SDS011;7123;49.468;10.992;2023-03-14T06:24:09;0.40;;;0.40;;
14092;SDS011;7123;49.468;10.992;2023-03-14T06:26:37;0.50;;;0.50;;
14092;SDS011;7123;49.468;10.992;2023-03-14T06:29:04;0.50;;;0.50;;
14092;SDS011;7123;49.468;10.992;2023-03-14T06:31:31;0.40;;;0.40;;
14092;SDS011;7123;49.468;10.992;2023-03-14T06:33:58;1.10;;;0.67;;
14092;SDS011;7123;49.468;10.992;2023-03-14T06:36:25;1.07;;;0.60;;
14092;SDS011;7123;49.468;10.992;2023-03-14T06:38:52;0.40;;;0.40;;
14092;SDS011;7123;49.468;10.992;2023-03-14T06:41:19;0.73;;;0.60;;
14092;SDS011;7123;49.468;10.992;2023-03-14T06:43:49;0.47;;;0.47;;
14092;SDS011;7123;49.468;10.992;2023-03-14T06:46:17;0.70;;;0.70;;
14092;SDS011;7123;49.468;10.992;2023-03-14T06:48:44;1.03;;;0.50;;
14092;SDS011;7123;49.468;10.992;2023-03-14T06:51:11;2.30;;;0.50;;
14092;SDS011;7123;49.468;10.992;2023-03-14T06:53:38;0.30;;;0.30;;
14092;SDS011;7123;49.468;10.992;2023-03-14T06:56:05;2.20;;;0.73;;
14092;SDS011;7123;49.468;10.992;2023-03-14T06:58:32;0.60;;;0.60;;
14092;SDS011;7123;49.468;10.992;2023-03-14T07:01:00;0.83;;;0.70;;
14092;SDS011;7123;49.468;10.992;2023-03-14T07:03:27;2.27;;;0.77;;
14092;SDS011;7123;49.468;10.992;2023-03-14T07:05:54;1.07;;;0.70;;
14092;SDS011;7123;49.468;10.992;2023-03-14T07:08:21;0.93;;;0.80;;
14092;SDS011;7123;49.468;10.992;2023-03-14T07:10:48;0.70;;;0.70;;
14092;SDS011;7123;49.468;10.992;2023-03-14T07:13:14;0.80;;;0.80;;
14092;SDS011;7123;49.468;10.992;2023-03-14T07:15:41;2.30;;;0.80;;
14092;SDS011;7123;49.468;10.992;2023-03-14T07:18:08;0.80;;;0.80;;
14092;SDS011;7123;49.468;10.992;2023-03-14T07:20:35;1.00;;;0.90;;
14092;SDS011;7123;49.468;10.992;2023-03-14T07:23:02;2.50;;;0.70;;
14092;SDS011;7123;49.468;10.992;2023-03-14T07:25:29;0.60;;;0.60;;
14092;SDS011;7123;49.468;10.992;2023-03-14T07:27:56;1.70;;;0.57;;
14092;SDS011;7123;49.468;10.992;2023-03-14T07:30:23;0.80;;;0.60;;
14092;SDS011;7123;49.468;10.992;2023-03-14T07:32:50;1.90;;;0.63;;
14092;SDS011;7123;49.468;10.992;2023-03-14T07:35:18;0.97;;;0.70;;
14092;SDS011;7123;49.468;10.992;2023-03-14T07:37:45;0.70;;;0.70;;
14092;SDS011;7123;49.468;10.992;2023-03-14T07:40:12;1.17;;;0.63;;
14092;SDS011;7123;49.468;10.992;2023-03-14T07:42:41;2.57;;;1.00;;
14092;SDS011;7123;49.468;10.992;2023-03-14T07:45:09;0.70;;;0.70;;
14092;SDS011;7123;49.468;10.992;2023-03-14T07:47:37;1.17;;;1.00;;
14092;SDS011;7123;49.468;10.992;2023-03-14T07:50:05;0.70;;;0.70;;
14092;SDS011;7123;49.468;10.992;2023-03-14T07:52:32;0.87;;;0.60;;
14092;SDS011;7123;49.468;10.992;2023-03-14T07:54:59;1.40;;;1.00;;
14092;SDS011;7123;49.468;10.992;2023-03-14T07:57:26;1.83;;;0.60;;
14092;SDS011;7123;49.468;10.992;2023-03-14T07:59:55;2.87;;;0.80;;
14092;SDS011;7123;49.468;10.992;2023-03-14T08:02:22;2.43;;;0.83;;
14092;SDS011;7123;49.468;10.992;2023-03-14T08:04:50;0.90;;;0.90;;
14092;SDS011;7123;49.468;10.992;2023-03-14T08:07:17;2.77;;;0.60;;
14092;SDS011;7123;49.468;10.992;2023-03-14T08:09:44;2.03;;;0.80;;
14092;SDS011;7123;49.468;10.992;2023-03-14T08:12:11;2.57;;;0.87;;
14092;SDS011;7123;49.468;10.992;2023-03-14T08:14:38;1.60;;;0.70;;
14092;SDS011;7123;49.468;10.992;2023-03-14T08:17:05;0.77;;;0.70;;
14092;SDS011;7123;49.468;10.992;2023-03-14T08:19:34;1.23;;;0.63;;
14092;SDS011;7123;49.468;10.992;2023-03-14T08:22:01;1.30;;;0.70;;
14092;SDS011;7123;49.468;10.992;2023-03-14T08:24:29;2.17;;;0.80;;
14092;SDS011;7123;49.468;10.992;2023-03-14T08:26:56;1.27;;;0.80;;
14092;SDS011;7123;49.468;10.992;2023-03-14T08:29:23;0.67;;;0.50;;
14092;SDS011;7123;49.468;10.992;2023-03-14T08:31:50;1.63;;;0.60;;
14092;SDS011;7123;49.468;10.992;2023-03-14T08:34:18;0.53;;;0.53;;
14092;SDS011;7123;49.468;10.992;2023-03-14T08:36:45;0.70;;;0.70;;
14092;SDS011;7123;49.468;10.992;2023-03-14T08:39:12;1.67;;;0.90;;
14092;SDS011;7123;49.468;10.992;2023-03-14T08:41:39;1.03;;;0.80;;
14092;SDS011;7123;49.468;10.992;2023-03-14T08:44:09;1.40;;;1.00;;
14092;SDS011;7123;49.468;10.992;2023-03-14T08:46:37;0.70;;;0.70;;
14092;SDS011;7123;49.468;10.992;2023-03-14T08:49:04;2.60;;;1.10;;
14092;SDS011;7123;49.468;10.992;2023-03-14T08:51:31;1.70;;;0.77;;
14092;SDS011;7123;49.468;10.992;2023-03-14T08:53:58;1.97;;;0.77;;
14092;SDS011;7123;49.468;10.992;2023-03-14T08:56:25;0.97;;;0.70;;
14092;SDS011;7123;49.468;10.992;2023-03-14T08:58:53;1.13;;;0.50;;
14092;SDS011;7123;49.468;10.992;2023-03-14T09:01:20;2.07;;;0.70;;
14092;SDS011;7123;49.468;10.992;2023-03-14T09:03:50;1.33;;;0.60;;
14092;SDS011;7123;49.468;10.992;2023-03-14T09:06:17;1.40;;;0.60;;
14092;SDS011;7123;49.468;10.992;2023-03-14T09:08:45;2.87;;;0.67;;
14092;SDS011;7123;49.468;10.992;2023-03-14T09:11:12;2.57;;;0.60;;
14092;SDS011;7123;49.468;10.992;2023-03-14T09:13:39;1.67;;;0.70;;
14092;SDS011;7123;49.468;10.992;2023-03-14T09:16:07;1.37;;;0.47;;
14092;SDS011;7123;49.468;10.992;2023-03-14T09:18:35;2.17;;;0.80;;
14092;SDS011;7123;49.468;10.992;2023-03-14T09:21:02;0.47;;;0.47;;
14092;SDS011;7123;49.468;10.992;2023-03-14T09:23:30;0.40;;;0.40;;
14092;SDS011;7123;49.468;10.992;2023-03-14T09:25:57;0.50;;;0.50;;
14092;SDS011;7123;49.468;10.992;2023-03-14T09:28:25;0.73;;;0.60;;
14092;SDS011;7123;49.468;10.992;2023-03-14T09:30:52;1.73;;;0.77;;
14092;SDS011;7123;49.468;10.992;2023-03-14T09:33:20;0.50;;;0.50;;
14092;SDS011;7123;49.468;10.992;2023-03-14T09:35:48;1.23;;;0.50;;
14092;SDS011;7123;49.468;10.992;2023-03-14T09:38:15;0.87;;;0.50;;
14092;SDS011;7123;49.468;10.992;2023-03-14T09:40:46;1.37;;;0.40;;
14092;SDS011;7123;49.468;10.992;2023-03-14T09:43:14;1.47;;;0.70;;
14092;SDS011;7123;49.468;10.992;2023-03-14T09:45:42;0.40;;;0.40;;
14092;SDS011;7123;49.468;10.992;2023-03-14T09:48:16;0.43;;;0.23;;
14092;SDS011;7123;49.468;10.992;2023-03-14T09:50:54;0.50;;;0.30;;
14092;SDS011;7123;49.468;10.992;2023-03-14T09:53:26;1.73;;;0.60;;
14092;SDS011;7123;49.468;10.992;2023-03-14T09:55:58;0.63;;;0.60;;
14092;SDS011;7123;49.468;10.992;2023-03-14T09:58:25;0.90;;;0.50;;
14092;SDS011;7123;49.468;10.992;2023-03-14T10:00:53;1.40;;;0.40;;
14092;SDS011;7123;49.468;10.992;2023-03-14T10:03:24;0.80;;;0.60;;
14092;SDS011;7123;49.468;10.992;2023-03-14T10:05:57;2.87;;;0.50;;
14092;SDS011;7123;49.468;10.992;2023-03-14T10:08:25;1.10;;;0.43;;
14092;SDS011;7123;49.468;10.992;2023-03-14T10:10:52;1.73;;;0.37;;
14092;SDS011;7123;49.468;10.992;2023-03-14T10:13:24;1.00;;;0.40;;
14092;SDS011;7123;49.468;10.992;2023-03-14T10:16:00;1.33;;;0.57;;
14092;SDS011;7123;49.468;10.992;2023-03-14T10:18:30;0.50;;;0.40;;
14092;SDS011;7123;49.468;10.992;2023-03-14T10:21:04;0.60;;;0.40;;
14092;SDS011;7123;49.468;10.992;2023-03-14T10:23:50;1.93;;;0.80;;
14092;SDS011;7123;49.468;10.992;2023-03-14T10:26:18;0.70;;;0.57;;
14092;SDS011;7123;49.468;10.992;2023-03-14T10:28:51;0.87;;;0.50;;
14092;SDS011;7123;49.468;10.992;2023-03-14T10:31:24;1.90;;;0.50;;
14092;SDS011;7123;49.468;10.992;2023-03-14T10:34:02;1.47;;;0.30;;
14092;SDS011;7123;49.468;10.992;2023-03-14T10:36:33;0.93;;;0.43;;
14092;SDS011;7123;49.468;10.992;2023-03-14T10:41:55;4.17;;;0.50;;
14092;SDS011;7123;49.468;10.992;2023-03-14T10:44:29;2.83;;;0.40;;
14092;SDS011;7123;49.468;10.992;2023-03-14T10:47:01;0.73;;;0.40;;
14092;SDS011;7123;49.468;10.992;2023-03-14T10:49:30;0.37;;;0.37;;
14092;SDS011;7123;49.468;10.992;2023-03-14T10:52:41;1.53;;;0.50;;
14092;SDS011;7123;49.468;10.992;2023-03-14T10:55:02;1.13;;;0.47;;
14092;SDS011;7123;49.468;10.992;2023-03-14T10:57:41;0.73;;;0.50;;
14092;SDS011;7123;49.468;10.992;2023-03-14T11:00:14;1.67;;;0.30;;
14092;SDS011;7123;49.468;10.992;2023-03-14T11:05:39;0.97;;;0.27;;
14092;SDS011;7123;49.468;10.992;2023-03-14T11:08:15;1.27;;;0.40;;
14092;SDS011;7123;49.468;10.992;2023-03-14T11:11:07;2.23;;;0.50;;
14092;SDS011;7123;49.468;10.992;2023-03-14T11:13:48;1.17;;;0.50;;
14092;SDS011;7123;49.468;10.992;2023-03-14T11:19:20;2.63;;;0.60;;
14092;SDS011;7123;49.468;10.992;2023-03-14T11:21:54;1.10;;;1.00;;
14092;SDS011;7123;49.468;10.992;2023-03-14T11:24:51;1.83;;;0.50;;
14092;SDS011;7123;49.468;10.992;2023-03-14T11:30:53;0.73;;;0.30;;
14092;SDS011;7123;49.468;10.992;2023-03-14T11:33:17;1.70;;;0.20;;
14092;SDS011;7123;49.468;10.992;2023-03-14T11:38:48;1.37;;;0.43;;
14092;SDS011;7123;49.468;10.992;2023-03-14T11:41:20;0.33;;;0.23;;
14092;SDS011;7123;49.468;10.992;2023-03-14T11:43:58;0.40;;;0.20;;
14092;SDS011;7123;49.468;10.992;2023-03-14T11:46:28;0.30;;;0.20;;
14092;SDS011;7123;49.468;10.992;2023-03-14T11:49:08;1.40;;;0.20;;
14092;SDS011;7123;49.468;10.992;2023-03-14T11:51:56;0.37;;;0.30;;
14092;SDS011;7123;49.468;10.992;2023-03-14T11:57:10;0.83;;;0.37;;
14092;SDS011;7123;49.468;10.992;2023-03-14T12:02:19;1.83;;;0.30;;
14092;SDS011;7123;49.468;10.992;2023-03-14T12:10:44;0.10;;;0.10;;
14092;SDS011;7123;49.468;10.992;2023-03-14T12:13:13;0.40;;;0.30;;
14092;SDS011;7123;49.468;10.992;2023-03-14T12:15:58;0.37;;;0.10;;
14092;SDS011;7123;49.468;10.992;2023-03-14T12:18:30;0.43;;;0.20;;
14092;SDS011;7123;49.468;10.992;2023-03-14T12:21:09;0.50;;;0.30;;
14092;SDS011;7123;49.468;10.992;2023-03-14T12:26:25;0.27;;;0.27;;
14092;SDS011;7123;49.468;10.992;2023-03-14T12:31:36;0.97;;;0.10;;
14092;SDS011;7123;49.468;10.992;2023-03-14T12:41:59;0.20;;;0.20;;
14092;SDS011;7123;49.468;10.992;2023-03-14T12:44:40;0.17;;;0.10;;
14092;SDS011;7123;49.468;10.992;2023-03-14T12:49:45;0.13;;;0.13;;
14092;SDS011;7123;49.468;10.992;2023-03-14T12:52:22;1.70;;;0.23;;
14092;SDS011;7123;49.468;10.992;2023-03-14T12:55:33;0.13;;;0.13;;
14092;SDS011;7123;49.468;10.992;2023-03-14T13:00:41;0.40;;;0.20;;
14092;SDS011;7123;49.468;10.992;2023-03-14T13:05:59;0.27;;;0.07;;
14092;SDS011;7123;49.468;10.992;2023-03-14T13:08:38;1.60;;;0.27;;
14092;SDS011;7123;49.468;10.992;2023-03-14T13:11:16;0.10;;;0.07;;
14092;SDS011;7123;49.468;10.992;2023-03-14T13:13:47;0.00;;;0.00;;
14092;SDS011;7123;49.468;10.992;2023-03-14T13:16:19;0.00;;;0.00;;
14092;SDS011;7123;49.468;10.992;2023-03-14T13:18:48;0.10;;;0.10;;
14092;SDS011;7123;49.468;10.992;2023-03-14T13:21:17;1.60;;;0.10;;
14092;SDS011;7123;49.468;10.992;2023-03-14T13:24:00;0.00;;;0.00;;
14092;SDS011;7123;49.468;10.992;2023-03-14T13:26:41;1.37;;;0.20;;
14092;SDS011;7123;49.468;10.992;2023-03-14T13:29:30;1.33;;;0.20;;
14092;SDS011;7123;49.468;10.992;2023-03-14T13:32:00;0.00;;;0.00;;
14092;SDS011;7123;49.468;10.992;2023-03-14T13:34:42;1.10;;;0.10;;
14092;SDS011;7123;49.468;10.992;2023-03-14T13:37:15;0.10;;;0.10;;
14092;SDS011;7123;49.468;10.992;2023-03-14T13:39:50;0.23;;;0.10;;
14092;SDS011;7123;49.468;10.992;2023-03-14T13:42:24;0.20;;;0.20;;
14092;SDS011;7123;49.468;10.992;2023-03-14T13:44:53;0.17;;;0.17;;
14092;SDS011;7123;49.468;10.992;2023-03-14T13:47:22;0.23;;;0.20;;
14092;SDS011;7123;49.468;10.992;2023-03-14T13:49:51;0.20;;;0.20;;
14092;SDS011;7123;49.468;10.992;2023-03-14T13:54:59;2.83;;;0.30;;
14092;SDS011;7123;49.468;10.992;2023-03-14T13:57:26;0.10;;;0.10;;
14092;SDS011;7123;49.468;10.992;2023-03-14T14:00:00;1.23;;;0.30;;
14092;SDS011;7123;49.468;10.992;2023-03-14T14:02:33;1.40;;;0.20;;
14092;SDS011;7123;49.468;10.992;2023-03-14T14:05:02;0.20;;;0.20;;
14092;SDS011;7123;49.468;10.992;2023-03-14T14:07:30;0.10;;;0.10;;
14092;SDS011;7123;49.468;10.992;2023-03-14T14:09:57;0.43;;;0.10;;
14092;SDS011;7123;49.468;10.992;2023-03-14T14:12:30;0.20;;;0.20;;
14092;SDS011;7123;49.468;10.992;2023-03-14T14:15:12;1.80;;;0.47;;
14092;SDS011;7123;49.468;10.992;2023-03-14T14:17:46;0.40;;;0.30;;
14092;SDS011;7123;49.468;10.992;2023-03-14T14:20:23;0.30;;;0.30;;
14092;SDS011;7123;49.468;10.992;2023-03-14T14:23:02;0.20;;;0.20;;
14092;SDS011;7123;49.468;10.992;2023-03-14T14:25:35;0.30;;;0.30;;
14092;SDS011;7123;49.468;10.992;2023-03-14T14:31:03;0.20;;;0.20;;
14092;SDS011;7123;49.468;10.992;2023-03-14T14:33:46;0.30;;;0.30;;
14092;SDS011;7123;49.468;10.992;2023-03-14T14:36:26;2.20;;;0.50;;
14092;SDS011;7123;49.468;10.992;2023-03-14T14:39:06;0.40;;;0.40;;
14092;SDS011;7123;49.468;10.992;2023-03-14T14:41:47;1.57;;;0.30;;
14092;SDS011;7123;49.468;10.992;2023-03-14T14:44:17;0.30;;;0.17;;
14092;SDS011;7123;49.468;10.992;2023-03-14T14:47:06;0.60;;;0.30;;
14092;SDS011;7123;49.468;10.992;2023-03-14T14:49:33;1.37;;;0.30;;
14092;SDS011;7123;49.468;10.992;2023-03-14T14:52:01;0.50;;;0.50;;
14092;SDS011;7123;49.468;10.992;2023-03-14T14:54:34;0.40;;;0.40;;
14092;SDS011;7123;49.468;10.992;2023-03-14T14:57:05;0.33;;;0.33;;
14092;SDS011;7123;49.468;10.992;2023-03-14T14:59:42;0.30;;;0.30;;
14092;SDS011;7123;49.468;10.992;2023-03-14T15:02:23;0.40;;;0.40;;
14092;SDS011;7123;49.468;10.992;2023-03-14T15:04:55;0.33;;;0.33;;
14092;SDS011;7123;49.468;10.992;2023-03-14T15:07:21;0.43;;;0.43;;
14092;SDS011;7123;49.468;10.992;2023-03-14T15:09:48;0.40;;;0.40;;
14092;SDS011;7123;49.468;10.992;2023-03-14T15:12:15;0.87;;;0.50;;
14092;SDS011;7123;49.468;10.992;2023-03-14T15:14:41;2.03;;;0.70;;
14092;SDS011;7123;49.468;10.992;2023-03-14T15:17:10;0.63;;;0.63;;
14092;SDS011;7123;49.468;10.992;2023-03-14T15:19:38;3.00;;;0.70;;
14092;SDS011;7123;49.468;10.992;2023-03-14T15:22:07;1.20;;;1.00;;
14092;SDS011;7123;49.468;10.992;2023-03-14T15:24:39;0.97;;;0.87;;
14092;SDS011;7123;49.468;10.992;2023-03-14T15:27:12;1.20;;;1.10;;
14092;SDS011;7123;49.468;10.992;2023-03-14T15:29:40;1.20;;;1.10;;
14092;SDS011;7123;49.468;10.992;2023-03-14T15:32:10;1.37;;;1.00;;
14092;SDS011;7123;49.468;10.992;2023-03-14T15:34:40;2.50;;;1.40;;
14092;SDS011;7123;49.468;10.992;2023-03-14T15:37:13;1.10;;;0.90;;
14092;SDS011;7123;49.468;10.992;2023-03-14T15:39:42;1.20;;;1.13;;
14092;SDS011;7123;49.468;10.992;2023-03-14T15:42:09;1.30;;;1.20;;
14092;SDS011;7123;49.468;10.992;2023-03-14T15:44:36;1.57;;;1.13;;
14092;SDS011;7123;49.468;10.992;2023-03-14T15:47:03;3.17;;;1.60;;
14092;SDS011;7123;49.468;10.992;2023-03-14T15:49:32;2.97;;;1.17;;
14092;SDS011;7123;49.468;10.992;2023-03-14T15:51:59;1.40;;;1.30;;
14092;SDS011;7123;49.468;10.992;2023-03-14T15:54:25;1.30;;;1.20;;
14092;SDS011;7123;49.468;10.992;2023-03-14T15:56:55;1.73;;;1.30;;
14092;SDS011;7123;49.468;10.992;2023-03-14T15:59:23;1.50;;;1.33;;
14092;SDS011;7123;49.468;10.992;2023-03-14T16:01:50;1.37;;;1.10;;